sensor_id;sensor_type;location;lat;lon;timestamp;pressure;altitude;pressure_sealevel;temperature;humidity
6028;BME280;3042;43.194;27.646;2023-04-19T00:01:01;101081.34;;;19.10;100.00
6028;BME280;3042;43.194;27.646;2023-04-19T00:03:29;101083.81;;;19.00;100.00
6028;BME280;3042;43.194;27.646;2023-04-19T00:05:56;101077.63;;;18.96;100.00
6028;BME280;3042;43.194;27.646;2023-04-19T00:08:24;101072.41;;;18.96;100.00
6028;BME280;3042;43.194;27.646;2023-04-19T00:10:51;101067.16;;;18.96;100.00
6028;BME280;3042;43.194;27.646;2023-04-19T00:13:18;101065.44;;;18.98;100.00
6028;BME280;3042;43.194;27.646;2023-04-19T00:15:46;101056.88;;;19.08;100.00
6028;BME280;3042;43.194;27.646;2023-04-19T00:18:15;101083.16;;;19.14;100.00
6028;BME280;3042;43.194;27.646;2023-04-19T00:20:42;101058.66;;;19.12;100.00
6028;BME280;3042;43.194;27.646;2023-04-19T00:23:09;101009.34;;;18.81;100.00
6028;BME280;3042;43.194;27.646;2023-04-19T00:25:36;101066.09;;;18.83;100.00
6028;BME280;3042;43.194;27.646;2023-04-19T00:28:03;101064.34;;;18.84;100.00
6028;BME280;3042;43.194;27.646;2023-04-19T00:30:31;100769.19;;;16.98;100.00
6028;BME280;3042;43.194;27.646;2023-04-19T00:32:58;101051.41;;;18.93;100.00
6028;BME280;3042;43.194;27.646;2023-04-19T00:35:26;101006.44;;;18.65;100.00
6028;BME280;3042;43.194;27.646;2023-04-19T00:37:53;101053.03;;;18.85;100.00
6028;BME280;3042;43.194;27.646;2023-04-19T00:40:21;101060.06;;;18.89;100.00
6028;BME280;3042;43.194;27.646;2023-04-19T00:42:48;101059.16;;;18.87;100.00
6028;BME280;3042;43.194;27.646;2023-04-19T00:45:15;101053.16;;;18.94;100.00
6028;BME280;3042;43.194;27.646;2023-04-19T00:47:42;101005.69;;;18.71;100.00
6028;BME280;3042;43.194;27.646;2023-04-19T00:50:10;101046.31;;;19.02;100.00
6028;BME280;3042;43.194;27.646;2023-04-19T00:52:39;101046.34;;;19.05;100.00
6028;BME280;3042;43.194;27.646;2023-04-19T00:55:07;100889.66;;;18.14;100.00
6028;BME280;3042;43.194;27.646;2023-04-19T00:57:36;101039.44;;;19.10;100.00
6028;BME280;3042;43.194;27.646;2023-04-19T01:00:03;101044.59;;;19.04;100.00
6028;BME280;3042;43.194;27.646;2023-04-19T01:02:33;101042.81;;;19.03;100.00
6028;BME280;3042;43.194;27.646;2023-04-19T01:05:00;101038.78;;;18.69;100.00
6028;BME280;3042;43.194;27.646;2023-04-19T01:07:28;100962.88;;;18.14;100.00
6028;BME280;3042;43.194;27.646;2023-04-19T01:09:56;101057.19;;;18.73;100.00
6028;BME280;3042;43.194;27.646;2023-04-19T01:12:23;101061.41;;;18.65;100.00
6028;BME280;3042;43.194;27.646;2023-04-19T01:14:51;101059.66;;;18.64;100.00
6028;BME280;3042;43.194;27.646;2023-04-19T01:17:18;101060.59;;;18.69;100.00
6028;BME280;3042;43.194;27.646;2023-04-19T01:19:45;101046.88;;;18.81;100.00
6028;BME280;3042;43.194;27.646;2023-04-19T01:22:15;101041.94;;;19.01;100.00
6028;BME280;3042;43.194;27.646;2023-04-19T01:24:43;101028.06;;;19.10;100.00
6028;BME280;3042;43.194;27.646;2023-04-19T01:27:10;101032.44;;;19.09;100.00
6028;BME280;3042;43.194;27.646;2023-04-19T01:29:38;101028.84;;;19.01;100.00
6028;BME280;3042;43.194;27.646;2023-04-19T01:32:05;101024.56;;;19.06;100.00
6028;BME280;3042;43.194;27.646;2023-04-19T01:34:33;101019.31;;;19.06;100.00
6028;BME280;3042;43.194;27.646;2023-04-19T01:37:00;101029.84;;;19.11;100.00
6028;BME280;3042;43.194;27.646;2023-04-19T01:39:29;100605.13;;;16.70;100.00
6028;BME280;3042;43.194;27.646;2023-04-19T01:41:56;101001.31;;;19.32;100.00
6028;BME280;3042;43.194;27.646;2023-04-19T01:44:23;101010.06;;;19.33;100.00
6028;BME280;3042;43.194;27.646;2023-04-19T01:46:50;101020.44;;;19.27;100.00
6028;BME280;3042;43.194;27.646;2023-04-19T01:49:17;101019.56;;;19.25;100.00
6028;BME280;3042;43.194;27.646;2023-04-19T01:51:45;101032.22;;;18.94;100.00
6028;BME280;3042;43.194;27.646;2023-04-19T01:54:12;101027.06;;;19.00;100.00
6028;BME280;3042;43.194;27.646;2023-04-19T01:56:41;101018.28;;;18.95;100.00
6028;BME280;3042;43.194;27.646;2023-04-19T01:59:08;101013.06;;;18.98;100.00
6028;BME280;3042;43.194;27.646;2023-04-19T02:01:35;100949.63;;;18.58;100.00
6028;BME280;3042;43.194;27.646;2023-04-19T02:04:02;100924.13;;;18.45;100.00
6028;BME280;3042;43.194;27.646;2023-04-19T02:06:29;101013.06;;;18.98;100.00
6028;BME280;3042;43.194;27.646;2023-04-19T02:08:57;101024.91;;;18.74;100.00
6028;BME280;3042;43.194;27.646;2023-04-19T02:11:24;101019.06;;;18.91;100.00
6028;BME280;3042;43.194;27.646;2023-04-19T02:13:53;101010.56;;;19.06;100.00
6028;BME280;3042;43.194;27.646;2023-04-19T02:16:20;100952.53;;;18.76;100.00
6028;BME280;3042;43.194;27.646;2023-04-19T02:18:47;101012.31;;;19.07;100.00
6028;BME280;3042;43.194;27.646;2023-04-19T02:21:14;101010.69;;;19.15;100.00
6028;BME280;3042;43.194;27.646;2023-04-19T02:23:41;101015.09;;;19.17;100.00
6028;BME280;3042;43.194;27.646;2023-04-19T02:26:09;101009.06;;;19.23;100.00
6028;BME280;3042;43.194;27.646;2023-04-19T02:28:36;100979.97;;;19.03;100.00
6028;BME280;3042;43.194;27.646;2023-04-19T02:31:05;101000.38;;;19.27;100.00
6028;BME280;3042;43.194;27.646;2023-04-19T02:33:33;101002.09;;;19.25;100.00
6028;BME280;3042;43.194;27.646;2023-04-19T02:36:00;101012.59;;;19.28;100.00
6028;BME280;3042;43.194;27.646;2023-04-19T02:38:27;100640.84;;;17.24;100.00
6028;BME280;3042;43.194;27.646;2023-04-19T02:40:54;100948.63;;;19.09;100.00
6028;BME280;3042;43.194;27.646;2023-04-19T02:43:21;100995.25;;;19.36;100.00
6028;BME280;3042;43.194;27.646;2023-04-19T02:45:49;100773.69;;;18.13;100.00
6028;BME280;3042;43.194;27.646;2023-04-19T02:48:18;100987.50;;;19.47;100.00
6028;BME280;3042;43.194;27.646;2023-04-19T02:50:45;100937.38;;;19.18;100.00
6028;BME280;3042;43.194;27.646;2023-04-19T02:53:12;100989.31;;;19.51;100.00
6028;BME280;3042;43.194;27.646;2023-04-19T02:55:39;100879.41;;;18.90;100.00
6028;BME280;3042;43.194;27.646;2023-04-19T02:58:07;100985.84;;;19.54;100.00
6028;BME280;3042;43.194;27.646;2023-04-19T03:00:34;100994.63;;;19.57;100.00
6028;BME280;3042;43.194;27.646;2023-04-19T03:03:01;100984.16;;;19.57;100.00
6028;BME280;3042;43.194;27.646;2023-04-19T03:05:30;100977.22;;;19.63;100.00
6028;BME280;3042;43.194;27.646;2023-04-19T03:07:57;100934.94;;;19.32;100.00
6028;BME280;3042;43.194;27.646;2023-04-19T03:10:24;100909.44;;;19.18;100.00
6028;BME280;3042;43.194;27.646;2023-04-19T03:12:52;100987.69;;;19.63;100.00
6028;BME280;3042;43.194;27.646;2023-04-19T03:15:19;100986.81;;;19.62;100.00
6028;BME280;3042;43.194;27.646;2023-04-19T03:17:46;100987.69;;;19.63;100.00
6028;BME280;3042;43.194;27.646;2023-04-19T03:20:14;100987.69;;;19.63;100.00
6028;BME280;3042;43.194;27.646;2023-04-19T03:22:43;100993.94;;;19.69;100.00
6028;BME280;3042;43.194;27.646;2023-04-19T03:25:10;100989.56;;;19.70;100.00
6028;BME280;3042;43.194;27.646;2023-04-19T03:27:38;100987.78;;;19.69;100.00
6028;BME280;3042;43.194;27.646;2023-04-19T03:30:06;101006.03;;;19.61;100.00
6028;BME280;3042;43.194;27.646;2023-04-19T03:32:33;101005.13;;;19.57;100.00
6028;BME280;3042;43.194;27.646;2023-04-19T03:35:01;100997.25;;;19.59;100.00
6028;BME280;3042;43.194;27.646;2023-04-19T03:37:28;100880.00;;;18.69;100.00
6028;BME280;3042;43.194;27.646;2023-04-19T03:39:56;100956.78;;;19.34;100.00
6028;BME280;3042;43.194;27.646;2023-04-19T03:42:24;100991.13;;;19.58;100.00
6028;BME280;3042;43.194;27.646;2023-04-19T03:44:51;100890.78;;;18.91;100.00
6028;BME280;3042;43.194;27.646;2023-04-19T03:47:18;100999.75;;;19.47;100.00
6028;BME280;3042;43.194;27.646;2023-04-19T03:49:45;100995.31;;;19.43;100.00
6028;BME280;3042;43.194;27.646;2023-04-19T03:52:12;100998.00;;;19.46;100.00
6028;BME280;3042;43.194;27.646;2023-04-19T03:54:39;100999.78;;;19.51;100.00
6028;BME280;3042;43.194;27.646;2023-04-19T03:57:08;100969.00;;;19.32;100.00
6028;BME280;3042;43.194;27.646;2023-04-19T03:59:37;100991.03;;;19.49;100.00
6028;BME280;3042;43.194;27.646;2023-04-19T04:02:05;100884.50;;;18.80;100.00
6028;BME280;3042;43.194;27.646;2023-04-19T04:04:32;100897.75;;;18.90;100.00
6028;BME280;3042;43.194;27.646;2023-04-19T04:06:59;101007.31;;;19.24;100.00
6028;BME280;3042;43.194;27.646;2023-04-19T04:09:26;101006.50;;;19.28;100.00
6028;BME280;3042;43.194;27.646;2023-04-19T04:11:54;101012.59;;;19.25;100.00
6028;BME280;3042;43.194;27.646;2023-04-19T04:14:39;101008.31;;;19.32;100.00
6028;BME280;3042;43.194;27.646;2023-04-19T04:17:07;101006.53;;;19.31;100.00
6028;BME280;3042;43.194;27.646;2023-04-19T04:19:35;101009.16;;;19.31;100.00
6028;BME280;3042;43.194;27.646;2023-04-19T04:22:02;101017.78;;;19.24;100.00
6028;BME280;3042;43.194;27.646;2023-04-19T04:24:30;101022.97;;;19.19;100.00
6028;BME280;3042;43.194;27.646;2023-04-19T04:27:03;101017.75;;;19.21;100.00
6028;BME280;3042;43.194;27.646;2023-04-19T04:29:33;101015.13;;;19.21;100.00
6028;BME280;3042;43.194;27.646;2023-04-19T04:32:00;101015.16;;;19.24;100.00
6028;BME280;3042;43.194;27.646;2023-04-19T04:34:27;101022.91;;;19.13;100.00
6028;BME280;3042;43.194;27.646;2023-04-19T04:36:54;100884.50;;;18.17;100.00
6028;BME280;3042;43.194;27.646;2023-04-19T04:39:22;100976.03;;;18.73;100.00
6028;BME280;3042;43.194;27.646;2023-04-19T04:41:49;100904.94;;;18.43;100.00
6028;BME280;3042;43.194;27.646;2023-04-19T04:44:17;101007.00;;;19.01;100.00
6028;BME280;3042;43.194;27.646;2023-04-19T04:46:48;100928.50;;;18.46;100.00
6028;BME280;3042;43.194;27.646;2023-04-19T04:49:15;100917.91;;;18.37;100.00
6028;BME280;3042;43.194;27.646;2023-04-19T04:51:42;101026.78;;;18.82;100.00
6028;BME280;3042;43.194;27.646;2023-04-19T04:54:10;101028.50;;;18.80;100.00
6028;BME280;3042;43.194;27.646;2023-04-19T04:56:38;101024.25;;;18.85;100.00
6028;BME280;3042;43.194;27.646;2023-04-19T04:59:05;100854.13;;;17.75;100.00
6028;BME280;3042;43.194;27.646;2023-04-19T05:01:32;101026.69;;;18.75;100.00
6028;BME280;3042;43.194;27.646;2023-04-19T05:04:01;101033.41;;;18.60;100.00
6028;BME280;3042;43.194;27.646;2023-04-19T05:06:28;101036.13;;;18.67;100.00
6028;BME280;3042;43.194;27.646;2023-04-19T05:08:55;100801.84;;;17.22;100.00
6028;BME280;3042;43.194;27.646;2023-04-19T05:11:22;101031.66;;;18.60;100.00
6028;BME280;3042;43.194;27.646;2023-04-19T05:13:49;100856.84;;;17.31;100.00
6028;BME280;3042;43.194;27.646;2023-04-19T05:16:16;101044.25;;;18.29;100.00
6028;BME280;3042;43.194;27.646;2023-04-19T05:18:44;101043.31;;;18.27;100.00
6028;BME280;3042;43.194;27.646;2023-04-19T05:21:15;100974.84;;;18.00;100.00
6028;BME280;3042;43.194;27.646;2023-04-19T05:23:43;100923.63;;;17.64;100.00
6028;BME280;3042;43.194;27.646;2023-04-19T05:26:10;101045.97;;;18.29;100.00
6028;BME280;3042;43.194;27.646;2023-04-19T05:28:40;101055.16;;;18.07;100.00
6028;BME280;3042;43.194;27.646;2023-04-19T05:31:07;101036.94;;;18.10;100.00
6028;BME280;3042;43.194;27.646;2023-04-19T05:33:35;100768.25;;;16.51;100.00
6028;BME280;3042;43.194;27.646;2023-04-19T05:36:02;100891.28;;;17.12;100.00
6028;BME280;3042;43.194;27.646;2023-04-19T05:38:31;101043.16;;;18.18;100.00
6028;BME280;3042;43.194;27.646;2023-04-19T05:40:58;100867.84;;;16.74;100.00
6028;BME280;3042;43.194;27.646;2023-04-19T05:43:26;100694.94;;;15.58;100.00
6028;BME280;3042;43.194;27.646;2023-04-19T05:45:53;100935.78;;;16.77;100.00
6028;BME280;3042;43.194;27.646;2023-04-19T05:48:21;101044.81;;;17.69;100.00
6028;BME280;3042;43.194;27.646;2023-04-19T05:50:49;101045.59;;;17.65;100.00
6028;BME280;3042;43.194;27.646;2023-04-19T05:53:19;101047.47;;;17.72;100.00
6028;BME280;3042;43.194;27.646;2023-04-19T05:55:48;101050.25;;;17.37;100.00
6028;BME280;3042;43.194;27.646;2023-04-19T05:58:16;100975.72;;;17.14;100.00
6028;BME280;3042;43.194;27.646;2023-04-19T06:00:44;100471.22;;;14.15;100.00
6028;BME280;3042;43.194;27.646;2023-04-19T06:03:11;101045.84;;;17.77;100.00
6028;BME280;3042;43.194;27.646;2023-04-19T06:05:50;100994.25;;;17.67;100.00
6028;BME280;3042;43.194;27.646;2023-04-19T06:08:20;101012.13;;;17.91;100.00
6028;BME280;3042;43.194;27.646;2023-04-19T06:10:49;101050.06;;;18.13;100.00
6028;BME280;3042;43.194;27.646;2023-04-19T06:13:16;100941.97;;;17.67;100.00
6028;BME280;3042;43.194;27.646;2023-04-19T06:15:43;101041.06;;;18.47;100.00
6028;BME280;3042;43.194;27.646;2023-04-19T06:18:11;100910.13;;;17.86;100.00
6028;BME280;3042;43.194;27.646;2023-04-19T06:20:39;100981.56;;;18.37;100.00
6028;BME280;3042;43.194;27.646;2023-04-19T06:23:07;101044.28;;;18.83;100.00
6028;BME280;3042;43.194;27.646;2023-04-19T06:25:34;100691.69;;;16.94;100.00
6028;BME280;3042;43.194;27.646;2023-04-19T06:28:03;101034.31;;;19.19;100.00
6028;BME280;3042;43.194;27.646;2023-04-19T06:30:30;101041.41;;;19.27;100.00
6028;BME280;3042;43.194;27.646;2023-04-19T06:32:57;101050.88;;;19.17;100.00
6028;BME280;3042;43.194;27.646;2023-04-19T06:35:24;101053.56;;;19.22;100.00
6028;BME280;3042;43.194;27.646;2023-04-19T06:37:51;101052.72;;;19.23;100.00
6028;BME280;3042;43.194;27.646;2023-04-19T06:40:19;101047.56;;;19.30;100.00
6028;BME280;3042;43.194;27.646;2023-04-19T06:42:46;101056.13;;;19.15;100.00
6028;BME280;3042;43.194;27.646;2023-04-19T06:45:15;101059.56;;;19.14;100.00
6028;BME280;3042;43.194;27.646;2023-04-19T06:47:42;101066.38;;;19.02;100.00
6028;BME280;3042;43.194;27.646;2023-04-19T06:50:11;100970.13;;;18.30;100.00
6028;BME280;3042;43.194;27.646;2023-04-19T06:52:39;101067.00;;;18.87;100.00
6028;BME280;3042;43.194;27.646;2023-04-19T06:55:08;100786.16;;;16.78;100.00
6028;BME280;3042;43.194;27.646;2023-04-19T06:57:36;100861.88;;;17.22;100.00
6028;BME280;3042;43.194;27.646;2023-04-19T07:00:04;100848.03;;;17.26;100.00
6028;BME280;3042;43.194;27.646;2023-04-19T07:02:33;101083.72;;;18.43;100.00
6028;BME280;3042;43.194;27.646;2023-04-19T07:05:01;100837.03;;;16.95;100.00
6028;BME280;3042;43.194;27.646;2023-04-19T07:07:28;101083.13;;;18.60;100.00
6028;BME280;3042;43.194;27.646;2023-04-19T07:09:55;100749.03;;;16.47;100.00
6028;BME280;3042;43.194;27.646;2023-04-19T07:12:22;101097.66;;;18.41;100.00
6028;BME280;3042;43.194;27.646;2023-04-19T07:14:49;101095.22;;;18.53;100.00
6028;BME280;3042;43.194;27.646;2023-04-19T07:17:21;101004.38;;;17.96;100.00
6028;BME280;3042;43.194;27.646;2023-04-19T07:19:49;101097.09;;;18.60;100.00
6028;BME280;3042;43.194;27.646;2023-04-19T07:22:17;101100.59;;;18.59;100.00
6028;BME280;3042;43.194;27.646;2023-04-19T07:24:44;101087.88;;;18.81;100.00
6028;BME280;3042;43.194;27.646;2023-04-19T07:27:11;101083.66;;;18.90;100.00
6028;BME280;3042;43.194;27.646;2023-04-19T07:29:39;101086.41;;;18.98;100.00
6028;BME280;3042;43.194;27.646;2023-04-19T07:32:07;101124.31;;;18.68;100.00
6028;BME280;3042;43.194;27.646;2023-04-19T07:34:36;101099.19;;;18.80;100.00
6028;BME280;3042;43.194;27.646;2023-04-19T07:37:05;101104.31;;;18.75;100.00
6028;BME280;3042;43.194;27.646;2023-04-19T07:39:32;101103.53;;;18.77;100.00
6028;BME280;3042;43.194;27.646;2023-04-19T07:41:59;101102.84;;;18.89;100.00
6028;BME280;3042;43.194;27.646;2023-04-19T07:44:26;101096.97;;;19.04;100.00
6028;BME280;3042;43.194;27.646;2023-04-19T07:46:53;101100.38;;;18.98;100.00
6028;BME280;3042;43.194;27.646;2023-04-19T07:49:21;101083.16;;;19.13;100.00
6028;BME280;3042;43.194;27.646;2023-04-19T07:51:48;100989.78;;;18.60;100.00
6028;BME280;3042;43.194;27.646;2023-04-19T07:54:16;101092.22;;;19.38;100.00
6028;BME280;3042;43.194;27.646;2023-04-19T07:56:44;101088.03;;;19.52;100.00
6028;BME280;3042;43.194;27.646;2023-04-19T07:59:11;101099.41;;;19.51;100.00
6028;BME280;3042;43.194;27.646;2023-04-19T08:01:39;101055.25;;;19.16;100.00
6028;BME280;3042;43.194;27.646;2023-04-19T08:04:06;101101.09;;;19.46;100.00
6028;BME280;3042;43.194;27.646;2023-04-19T08:06:46;101097.81;;;19.63;100.00
6028;BME280;3042;43.194;27.646;2023-04-19T08:09:22;101054.66;;;19.37;100.00
6028;BME280;3042;43.194;27.646;2023-04-19T08:11:50;101099.56;;;19.64;100.00
6028;BME280;3042;43.194;27.646;2023-04-19T08:14:18;101101.50;;;19.77;100.00
6028;BME280;3042;43.194;27.646;2023-04-19T08:16:45;101099.72;;;19.76;100.00
6028;BME280;3042;43.194;27.646;2023-04-19T08:19:12;101106.56;;;19.66;100.00
6028;BME280;3042;43.194;27.646;2023-04-19T08:21:39;101106.75;;;19.77;100.00
6028;BME280;3042;43.194;27.646;2023-04-19T08:24:07;101099.91;;;19.88;100.00
6028;BME280;3042;43.194;27.646;2023-04-19T08:26:35;101105.16;;;19.88;100.00
6028;BME280;3042;43.194;27.646;2023-04-19T08:29:04;101116.50;;;19.87;100.00
6028;BME280;3042;43.194;27.646;2023-04-19T08:31:53;101137.59;;;19.34;100.00
6028;BME280;3042;43.194;27.646;2023-04-19T08:34:20;101115.13;;;19.51;100.00
6028;BME280;3042;43.194;27.646;2023-04-19T08:36:47;101111.75;;;19.61;100.00
6028;BME280;3042;43.194;27.646;2023-04-19T08:39:15;101073.78;;;19.30;100.00
6028;BME280;3042;43.194;27.646;2023-04-19T08:41:44;101127.06;;;19.31;100.00
6028;BME280;3042;43.194;27.646;2023-04-19T08:44:13;101109.13;;;19.60;100.00
6028;BME280;3042;43.194;27.646;2023-04-19T08:46:42;101115.53;;;19.79;100.00
6028;BME280;3042;43.194;27.646;2023-04-19T08:49:10;101067.56;;;19.24;100.00
6028;BME280;3042;43.194;27.646;2023-04-19T08:51:39;101129.47;;;19.17;100.00
6028;BME280;3042;43.194;27.646;2023-04-19T08:54:06;101074.50;;;19.18;100.00
6028;BME280;3042;43.194;27.646;2023-04-19T08:56:34;101032.44;;;19.09;100.00
6028;BME280;3042;43.194;27.646;2023-04-19T08:59:02;101120.50;;;19.60;100.00
6028;BME280;3042;43.194;27.646;2023-04-19T09:01:29;101015.97;;;19.18;100.00
6028;BME280;3042;43.194;27.646;2023-04-19T09:03:57;101075.16;;;19.68;100.00
6028;BME280;3042;43.194;27.646;2023-04-19T09:06:24;100892.22;;;18.70;100.00
6028;BME280;3042;43.194;27.646;2023-04-19T09:08:53;101070.25;;;19.95;100.00
6028;BME280;3042;43.194;27.646;2023-04-19T09:11:39;101112.44;;;20.15;100.00
6028;BME280;3042;43.194;27.646;2023-04-19T09:14:12;101112.69;;;20.38;100.00
6028;BME280;3042;43.194;27.646;2023-04-19T09:16:40;101117.16;;;20.47;100.00
6028;BME280;3042;43.194;27.646;2023-04-19T09:19:08;101129.34;;;20.43;100.00
6028;BME280;3042;43.194;27.646;2023-04-19T09:21:37;101131.59;;;20.07;100.00
6028;BME280;3042;43.194;27.646;2023-04-19T09:24:05;101141.63;;;19.70;100.00
6028;BME280;3042;43.194;27.646;2023-04-19T09:26:32;101078.00;;;19.21;100.00
6028;BME280;3042;43.194;27.646;2023-04-19T09:29:03;101143.22;;;19.61;100.00
6028;BME280;3042;43.194;27.646;2023-04-19T09:31:37;101032.09;;;19.49;100.00
6028;BME280;3042;43.194;27.646;2023-04-19T09:34:16;101013.44;;;19.26;100.00
6028;BME280;3042;43.194;27.646;2023-04-19T09:36:46;101113.94;;;19.93;100.00
6028;BME280;3042;43.194;27.646;2023-04-19T09:39:27;101113.50;;;20.31;100.00
6028;BME280;3042;43.194;27.646;2023-04-19T09:41:55;101107.59;;;20.54;100.00
6028;BME280;3042;43.194;27.646;2023-04-19T09:44:23;101114.19;;;20.15;100.00
6028;BME280;3042;43.194;27.646;2023-04-19T09:46:52;101129.09;;;20.20;100.00
6028;BME280;3042;43.194;27.646;2023-04-19T09:49:21;101089.72;;;20.16;100.00
6028;BME280;3042;43.194;27.646;2023-04-19T09:51:50;101125.91;;;20.48;100.00
6028;BME280;3042;43.194;27.646;2023-04-19T09:54:19;101126.78;;;20.47;100.00
6028;BME280;3042;43.194;27.646;2023-04-19T09:56:47;101103.16;;;20.47;100.00
6028;BME280;3042;43.194;27.646;2023-04-19T09:59:14;101100.47;;;20.40;100.00
6028;BME280;3042;43.194;27.646;2023-04-19T10:01:43;101052.63;;;19.85;100.00
6028;BME280;3042;43.194;27.646;2023-04-19T10:04:13;101137.03;;;20.25;100.00
6028;BME280;3042;43.194;27.646;2023-04-19T10:06:46;101130.22;;;20.42;100.00
6028;BME280;3042;43.194;27.646;2023-04-19T10:09:14;101118.09;;;20.54;100.00
6028;BME280;3042;43.194;27.646;2023-04-19T10:11:44;101121.66;;;20.56;100.00
6028;BME280;3042;43.194;27.646;2023-04-19T10:14:14;101109.56;;;20.76;100.00
6028;BME280;3042;43.194;27.646;2023-04-19T10:16:42;101088.50;;;20.70;100.00
6028;BME280;3042;43.194;27.646;2023-04-19T10:19:12;101115.69;;;20.75;100.00
6028;BME280;3042;43.194;27.646;2023-04-19T10:21:41;101121.00;;;20.83;100.00
6028;BME280;3042;43.194;27.646;2023-04-19T10:24:08;101114.72;;;20.64;100.00
6028;BME280;3042;43.194;27.646;2023-04-19T10:27:07;101119.19;;;20.73;100.00
6028;BME280;3042;43.194;27.646;2023-04-19T10:29:57;101122.59;;;20.64;100.00
6028;BME280;3042;43.194;27.646;2023-04-19T10:32:26;101003.88;;;20.02;100.00
6028;BME280;3042;43.194;27.646;2023-04-19T10:35:00;101113.22;;;20.94;100.00
6028;BME280;3042;43.194;27.646;2023-04-19T10:37:30;101102.81;;;21.09;100.00
6028;BME280;3042;43.194;27.646;2023-04-19T10:39:57;101107.19;;;21.05;100.00
6028;BME280;3042;43.194;27.646;2023-04-19T10:42:24;100886.59;;;19.89;100.00
6028;BME280;3042;43.194;27.646;2023-04-19T10:45:31;101076.44;;;20.97;100.00
6028;BME280;3042;43.194;27.646;2023-04-19T10:47:58;101103.75;;;21.14;100.00
6028;BME280;3042;43.194;27.646;2023-04-19T10:50:27;101108.13;;;21.15;100.00
6028;BME280;3042;43.194;27.646;2023-04-19T10:52:54;101126.19;;;20.75;100.00
6028;BME280;3042;43.194;27.646;2023-04-19T10:55:21;101127.97;;;20.81;100.00
6028;BME280;3042;43.194;27.646;2023-04-19T10:58:01;101135.09;;;20.91;100.00
6028;BME280;3042;43.194;27.646;2023-04-19T11:00:29;101122.00;;;20.96;100.00
6028;BME280;3042;43.194;27.646;2023-04-19T11:02:58;101119.47;;;21.11;100.00
6028;BME280;3042;43.194;27.646;2023-04-19T11:05:27;101078.94;;;20.77;100.00
6028;BME280;3042;43.194;27.646;2023-04-19T11:07:54;101081.16;;;20.35;100.00
6028;BME280;3042;43.194;27.646;2023-04-19T11:10:31;101137.44;;;20.59;100.00
6028;BME280;3042;43.194;27.646;2023-04-19T11:12:59;101149.50;;;20.44;100.00
6028;BME280;3042;43.194;27.646;2023-04-19T11:15:26;101140.81;;;20.49;100.00
6028;BME280;3042;43.194;27.646;2023-04-19T11:17:53;101144.28;;;20.48;100.00
6028;BME280;3042;43.194;27.646;2023-04-19T11:20:22;101152.97;;;20.43;100.00
6028;BME280;3042;43.194;27.646;2023-04-19T11:22:52;101165.66;;;20.02;100.00
6028;BME280;3042;43.194;27.646;2023-04-19T11:25:21;101149.16;;;20.12;100.00
6028;BME280;3042;43.194;27.646;2023-04-19T11:27:50;101139.53;;;20.13;100.00
6028;BME280;3042;43.194;27.646;2023-04-19T11:30:19;101148.94;;;19.95;100.00
6028;BME280;3042;43.194;27.646;2023-04-19T11:32:47;101148.88;;;19.92;100.00
6028;BME280;3042;43.194;27.646;2023-04-19T11:35:17;101131.69;;;20.14;100.00
6028;BME280;3042;43.194;27.646;2023-04-19T11:37:45;101142.13;;;20.10;100.00
6028;BME280;3042;43.194;27.646;2023-04-19T11:40:15;101154.75;;;19.70;100.00
6028;BME280;3042;43.194;27.646;2023-04-19T11:42:46;101138.31;;;19.83;100.00
6028;BME280;3042;43.194;27.646;2023-04-19T11:45:46;101130.78;;;20.12;100.00
6028;BME280;3042;43.194;27.646;2023-04-19T11:48:29;101121.53;;;20.47;100.00
6028;BME280;3042;43.194;27.646;2023-04-19T11:50:58;101107.88;;;20.81;100.00
6028;BME280;3042;43.194;27.646;2023-04-19T11:53:26;100956.56;;;19.93;100.00
6028;BME280;3042;43.194;27.646;2023-04-19T11:55:56;101098.50;;;21.17;100.00
6028;BME280;3042;43.194;27.646;2023-04-19T11:58:25;101094.19;;;21.32;100.00
6028;BME280;3042;43.194;27.646;2023-04-19T12:00:53;101083.06;;;21.76;100.00
6028;BME280;3042;43.194;27.646;2023-04-19T12:03:23;101076.13;;;22.14;100.00
6028;BME280;3042;43.194;27.646;2023-04-19T12:05:52;101060.41;;;22.65;100.00
6028;BME280;3042;43.194;27.646;2023-04-19T12:08:29;101057.78;;;23.01;100.00
6028;BME280;3042;43.194;27.646;2023-04-19T12:10:58;101057.72;;;23.22;100.00
6028;BME280;3042;43.194;27.646;2023-04-19T12:13:28;101055.88;;;23.52;100.00
6028;BME280;3042;43.194;27.646;2023-04-19T12:15:56;101038.25;;;23.63;100.00
6028;BME280;3042;43.194;27.646;2023-04-19T12:18:24;101051.38;;;23.80;100.00
6028;BME280;3042;43.194;27.646;2023-04-19T12:20:52;101048.72;;;23.85;100.00
6028;BME280;3042;43.194;27.646;2023-04-19T12:23:19;100918.97;;;22.84;100.00
6028;BME280;3042;43.194;27.646;2023-04-19T12:25:53;101049.66;;;23.62;100.00
6028;BME280;3042;43.194;27.646;2023-04-19T12:28:31;101034.66;;;23.79;100.00
6028;BME280;3042;43.194;27.646;2023-04-19T12:30:58;101037.31;;;23.73;100.00
6028;BME280;3042;43.194;27.646;2023-04-19T12:33:25;100980.31;;;23.35;100.00
6028;BME280;3042;43.194;27.646;2023-04-19T12:35:53;100997.91;;;23.36;100.00
6028;BME280;3042;43.194;27.646;2023-04-19T12:38:20;100892.69;;;22.72;100.00
6028;BME280;3042;43.194;27.646;2023-04-19T12:40:47;101022.34;;;23.78;100.00
6028;BME280;3042;43.194;27.646;2023-04-19T12:43:14;101011.81;;;23.72;100.00
6028;BME280;3042;43.194;27.646;2023-04-19T12:45:42;101008.09;;;24.06;100.00
6028;BME280;3042;43.194;27.646;2023-04-19T12:48:10;101002.81;;;24.07;100.00
6028;BME280;3042;43.194;27.646;2023-04-19T12:50:37;100924.28;;;22.76;100.00
6028;BME280;3042;43.194;27.646;2023-04-19T12:53:04;101003.28;;;22.93;100.00
6028;BME280;3042;43.194;27.646;2023-04-19T12:55:31;101022.53;;;23.29;100.00
6028;BME280;3042;43.194;27.646;2023-04-19T12:57:58;100988.34;;;23.03;100.00